CheckWX is a tool to help pilots better visualize weather data.  It is not intended as a substitute for an official pre-flight weather briefing.

12:40:13 UTC

CYEN METAR
Estevan Airport
Estevan, Canada
Current

40 mins ago

CYEN 221200Z AUTO 20006KT 9SM CLR M26/M28 A3013 RMK SLP267
Observed
Feb-22 @ 12:00 UTC
Wind
  • 200° at 6 KTS
Visibility
9 SM
Flight Rules
VFR
Cloud Levels
  • Clear skies
Temperature
-26°C / -15°F
Dewpoint
-28°C / -18°F
Humidity
83%
Altimeter
30.13" Hg
Pressure
1026.7 hPa
Previous

2 hours ago

CYEN 221100Z AUTO 21005KT 9SM CLR M26/M29 A3014 RMK SLP270
Observed
Feb-22 @ 11:00 UTC
Wind
  • 210° at 5 KTS
Visibility
9 SM
Flight Rules
VFR
Cloud Levels
  • Clear skies
Temperature
-26°C / -15°F
Dewpoint
-29°C / -20°F
Humidity
76%
Altimeter
30.14" Hg
Pressure
1027 hPa
Previous

3 hours ago

CYEN 221000Z AUTO 21007KT 9SM CLR M27/M29 A3015 RMK SLP273
Observed
Feb-22 @ 10:00 UTC
Wind
  • 210° at 7 KTS
Visibility
9 SM
Flight Rules
VFR
Cloud Levels
  • Clear skies
Temperature
-27°C / -17°F
Dewpoint
-29°C / -20°F
Humidity
83%
Altimeter
30.15" Hg
Pressure
1027.3 hPa